createdAt,value
2023-04-01T00:02:00.892Z,13.10
2023-04-01T00:04:27.444Z,13.10
2023-04-01T00:06:54.486Z,13.20
2023-04-01T00:09:20.979Z,13.20
2023-04-01T00:11:47.456Z,13.10
2023-04-01T00:14:13.937Z,13.10
2023-04-01T00:16:40.502Z,13.10
2023-04-01T00:19:07.046Z,13.10
2023-04-01T00:21:33.530Z,13.10
2023-04-01T00:24:00.013Z,13.20
2023-04-01T00:26:26.496Z,13.20
2023-04-01T00:28:52.952Z,13.20
2023-04-01T00:31:24.632Z,13.10
2023-04-01T00:33:51.139Z,13.10
2023-04-01T00:36:18.611Z,13.10
2023-04-01T00:38:45.108Z,13.10
2023-04-01T00:41:12.549Z,13.10
2023-04-01T00:43:39.021Z,13.10
2023-04-01T00:46:05.486Z,13.10
2023-04-01T00:48:31.975Z,13.10
2023-04-01T00:50:58.432Z,13.10
2023-04-01T00:53:24.895Z,13.10
2023-04-01T00:55:51.400Z,13.10
2023-04-01T00:58:17.887Z,13.10
2023-04-01T01:00:44.409Z,13.10
2023-04-01T01:03:10.929Z,13.10
2023-04-01T01:05:48.702Z,13.10
2023-04-01T01:08:18.526Z,13.20
2023-04-01T01:10:45.008Z,13.10
2023-04-01T01:13:11.481Z,13.10
2023-04-01T01:15:37.968Z,13.10
2023-04-01T01:18:04.495Z,13.10
2023-04-01T01:20:31.009Z,13.10
2023-04-01T01:22:57.440Z,13.10
2023-04-01T01:25:24.581Z,13.10
2023-04-01T01:27:51.056Z,13.10
2023-04-01T01:30:17.552Z,13.10
2023-04-01T01:32:44.072Z,13.10
2023-04-01T01:35:10.624Z,13.10
2023-04-01T01:37:37.090Z,13.10
2023-04-01T01:40:03.573Z,13.10
2023-04-01T01:42:30.591Z,13.10
2023-04-01T01:44:57.094Z,13.10
2023-04-01T01:47:23.564Z,13.10
2023-04-01T01:49:50.041Z,13.10
2023-04-01T01:52:18.617Z,13.10
2023-04-01T01:54:48.614Z,13.10
2023-04-01T01:57:18.676Z,13.10
2023-04-01T01:59:48.710Z,13.10
2023-04-01T02:02:15.180Z,13.10
2023-04-01T02:04:42.617Z,13.10
2023-04-01T02:07:09.082Z,13.10
2023-04-01T02:09:35.562Z,13.10
2023-04-01T02:12:02.035Z,13.20
2023-04-01T02:14:28.503Z,13.10
2023-04-01T02:16:54.973Z,13.10
2023-04-01T02:19:21.447Z,13.10
2023-04-01T02:21:48.639Z,13.10
2023-04-01T02:24:18.813Z,13.10
2023-04-01T02:26:45.303Z,13.10
2023-04-01T02:29:11.775Z,13.10
2023-04-01T02:31:38.267Z,13.10
2023-04-01T02:34:04.745Z,13.10
2023-04-01T02:36:31.255Z,13.10
2023-04-01T02:39:00.594Z,13.10
2023-04-01T02:41:30.650Z,13.10
2023-04-01T02:43:57.127Z,13.10
2023-04-01T02:46:24.699Z,13.10
2023-04-01T02:48:54.848Z,13.00
2023-04-01T02:51:24.654Z,13.10
2023-04-01T02:53:51.106Z,13.10
2023-04-01T02:56:18.669Z,13.10
2023-04-01T02:58:45.162Z,13.10
2023-04-01T03:01:11.651Z,13.10
2023-04-01T03:03:38.272Z,13.10
2023-04-01T03:06:04.773Z,13.10
2023-04-01T03:08:31.234Z,13.10
2023-04-01T03:10:59.554Z,13.10
2023-04-01T03:13:27.097Z,13.10
2023-04-01T03:15:53.571Z,13.10
2023-04-01T03:18:20.042Z,13.10
2023-04-01T03:20:46.536Z,13.10
2023-04-01T03:23:18.681Z,13.10
2023-04-01T03:25:45.171Z,13.10
2023-04-01T03:33:54.672Z,13.10
2023-04-01T03:39:11.186Z,13.10
2023-04-01T03:41:37.724Z,13.10
2023-04-01T03:44:04.209Z,13.10
2023-04-01T03:46:30.732Z,13.10
2023-04-01T03:48:57.234Z,13.10
2023-04-01T03:51:23.750Z,13.10
2023-04-01T03:53:50.237Z,13.10
2023-04-01T03:56:16.712Z,13.10
2023-04-01T03:58:43.200Z,13.10
2023-04-01T04:01:09.670Z,13.10
2023-04-01T04:03:36.781Z,13.10
2023-04-01T04:06:06.827Z,13.10
2023-04-01T04:08:33.284Z,13.10
2023-04-01T04:10:59.756Z,13.10
2023-04-01T04:13:26.241Z,13.10
2023-04-01T04:15:52.770Z,13.10
2023-04-01T04:18:19.286Z,13.10
2023-04-01T04:20:48.706Z,13.10
2023-04-01T04:23:15.181Z,13.10
2023-04-01T04:25:41.629Z,13.10
2023-04-01T04:28:08.090Z,13.10
2023-04-01T04:30:34.555Z,13.10
2023-04-01T04:33:06.759Z,13.10
2023-04-01T04:35:36.761Z,13.10
2023-04-01T04:38:03.255Z,13.10
2023-04-01T04:40:29.719Z,13.10
2023-04-01T04:42:56.184Z,13.10
2023-04-01T04:45:24.717Z,13.10
2023-04-01T04:47:51.235Z,13.10
2023-04-01T04:50:17.750Z,13.10
2023-04-01T04:52:44.233Z,13.10
2023-04-01T04:55:10.723Z,13.10
2023-04-01T04:57:42.797Z,13.10
2023-04-01T05:00:09.314Z,13.10
2023-04-01T05:02:36.018Z,13.10
2023-04-01T05:05:02.587Z,13.10
2023-04-01T05:07:29.090Z,13.10
2023-04-01T05:09:55.537Z,13.10
2023-04-01T05:12:22.004Z,13.10
2023-04-01T05:14:48.769Z,13.10
2023-04-01T05:17:15.245Z,13.10
2023-04-01T05:19:42.785Z,13.10
2023-04-01T05:22:09.375Z,13.10
2023-04-01T05:24:35.847Z,13.10
2023-04-01T05:27:02.344Z,13.10
2023-04-01T05:32:19.257Z,13.10
2023-04-01T05:34:45.735Z,13.10
2023-04-01T05:37:12.210Z,13.10
2023-04-01T05:42:29.489Z,13.10
2023-04-01T05:44:55.944Z,13.10
2023-04-01T05:47:22.441Z,13.10
2023-04-01T05:49:48.990Z,13.10
2023-04-01T05:52:15.455Z,13.10
2023-04-01T05:54:41.936Z,13.10
2023-04-01T05:57:08.449Z,13.10
2023-04-01T05:59:35.016Z,13.10
2023-04-01T06:02:01.493Z,13.10
2023-04-01T06:04:28.019Z,13.10
2023-04-01T06:06:54.788Z,13.10
2023-04-01T06:09:21.264Z,13.10
2023-04-01T06:11:47.737Z,13.10
2023-04-01T06:14:18.830Z,13.10
2023-04-01T06:16:45.393Z,13.10
2023-04-01T06:19:11.977Z,13.10
2023-04-01T06:21:38.500Z,13.10
2023-04-01T06:24:05.027Z,13.10
2023-04-01T06:29:23.138Z,13.10
2023-04-01T06:31:49.637Z,13.10
2023-04-01T06:34:16.117Z,13.10
2023-04-01T06:36:42.572Z,13.10
2023-04-01T06:39:11.050Z,13.10
2023-04-01T06:41:38.059Z,13.10
2023-04-01T06:44:04.559Z,13.20
2023-04-01T06:46:31.074Z,13.20
2023-04-01T06:48:57.563Z,13.10
2023-04-01T06:51:24.045Z,13.10
2023-04-01T06:53:50.501Z,13.10
2023-04-01T06:56:17.009Z,13.10
2023-04-01T06:58:43.472Z,13.10
2023-04-01T07:01:09.984Z,13.10
2023-04-01T07:03:36.851Z,13.10
2023-04-01T07:06:03.323Z,13.10
2023-04-01T07:08:29.791Z,13.10
2023-04-01T07:11:00.883Z,13.10
2023-04-01T07:13:27.382Z,13.10
2023-04-01T07:15:54.483Z,13.10
2023-04-01T07:18:21.954Z,13.10
2023-04-01T07:20:48.434Z,13.10
2023-04-01T07:23:18.885Z,13.10
2023-04-01T07:25:45.645Z,13.10
2023-04-01T07:28:12.171Z,13.10
2023-04-01T07:30:38.780Z,13.10
2023-04-01T07:33:05.309Z,13.10
2023-04-01T07:35:32.203Z,13.10
2023-04-01T07:37:58.863Z,13.10
2023-04-01T07:40:25.367Z,13.10
2023-04-01T07:42:54.905Z,13.10
2023-04-01T07:45:21.395Z,13.10
2023-04-01T07:47:47.975Z,13.10
2023-04-01T07:50:14.469Z,13.10
2023-04-01T07:52:40.955Z,13.10
2023-04-01T07:55:07.434Z,13.10
2023-04-01T07:57:33.932Z,13.10
2023-04-01T08:00:00.894Z,13.10
2023-04-01T08:02:31.001Z,13.10
2023-04-01T08:04:57.604Z,13.10
2023-04-01T08:07:24.934Z,13.10
2023-04-01T08:09:51.410Z,13.10
2023-04-01T08:12:17.877Z,13.10
2023-04-01T08:14:49.052Z,13.10
2023-04-01T08:17:15.520Z,13.10
2023-04-01T08:19:42.881Z,13.10
2023-04-01T08:22:09.344Z,13.10
2023-04-01T08:24:46.595Z,13.10
2023-04-01T08:27:14.334Z,13.10
2023-04-01T08:29:40.804Z,13.10
2023-04-01T08:32:07.346Z,13.10
2023-04-01T08:34:37.066Z,13.10
2023-04-01T08:37:03.611Z,13.10
2023-04-01T08:39:30.081Z,13.10
2023-04-01T08:42:00.943Z,13.10
2023-04-01T08:44:27.413Z,13.10
2023-04-01T08:46:53.881Z,13.10
2023-04-01T08:49:20.354Z,13.10
2023-04-01T08:51:46.917Z,13.10
2023-04-01T08:54:13.375Z,13.10
2023-04-01T08:56:39.853Z,13.10
2023-04-01T08:59:06.316Z,13.10
2023-04-01T09:01:32.795Z,13.10
2023-04-01T09:03:59.364Z,13.10
2023-04-01T09:06:25.970Z,13.10
2023-04-01T09:08:52.438Z,13.10
2023-04-01T09:11:18.908Z,13.10
2023-04-01T09:13:48.979Z,13.10
2023-04-01T09:16:15.493Z,13.10
2023-04-01T09:18:42.066Z,13.10
2023-04-01T09:21:08.553Z,13.10
2023-04-01T09:23:35.007Z,13.10
2023-04-01T09:26:01.496Z,13.10
2023-04-01T09:28:27.998Z,13.10
2023-04-01T09:30:54.565Z,13.10
2023-04-01T09:33:25.001Z,13.10
2023-04-01T09:35:51.483Z,13.10
2023-04-01T09:38:17.968Z,13.10
2023-04-01T09:40:44.439Z,13.10
2023-04-01T09:43:10.932Z,13.10
2023-04-01T09:45:37.403Z,13.10
2023-04-01T09:48:03.931Z,13.20
2023-04-01T09:50:30.418Z,13.20
2023-04-01T09:52:56.898Z,13.10
2023-04-01T09:55:23.363Z,13.10
2023-04-01T09:57:49.844Z,13.10
2023-04-01T10:00:19.097Z,13.10
2023-04-01T10:02:45.692Z,13.10
2023-04-01T10:05:12.990Z,13.10
2023-04-01T10:07:39.488Z,13.10
2023-04-01T10:10:05.958Z,13.20
2023-04-01T10:12:32.435Z,13.10
2023-04-01T10:14:58.902Z,13.10
2023-04-01T10:17:25.379Z,13.10
2023-04-01T10:19:51.852Z,13.10
2023-04-01T10:22:18.368Z,13.10
2023-04-01T10:24:44.837Z,13.10
2023-04-01T10:27:11.342Z,13.10
2023-04-01T10:29:37.811Z,13.10
2023-04-01T10:32:04.404Z,13.10
2023-04-01T10:34:31.085Z,13.20
2023-04-01T10:36:57.563Z,13.10
2023-04-01T10:39:24.027Z,13.10
2023-04-01T10:41:50.545Z,13.10
2023-04-01T10:44:17.017Z,13.20
2023-04-01T10:46:49.043Z,13.20
2023-04-01T10:49:15.502Z,13.10
2023-04-01T10:51:43.035Z,13.10
2023-04-01T10:54:09.513Z,13.10
2023-04-01T10:56:35.996Z,13.10
2023-04-01T10:59:02.833Z,13.10
2023-04-01T11:01:29.335Z,13.10
2023-04-01T11:03:55.948Z,13.20
2023-04-01T11:06:22.486Z,13.20
2023-04-01T11:08:48.956Z,13.10
2023-04-01T11:11:15.421Z,13.20
2023-04-01T11:13:41.910Z,13.10
2023-04-01T11:16:08.455Z,13.10
2023-04-01T11:18:37.082Z,13.20
2023-04-01T11:21:03.541Z,13.20
2023-04-01T11:23:30.033Z,13.20
2023-04-01T11:25:56.523Z,13.20
2023-04-01T11:28:23.090Z,13.20
2023-04-01T11:30:49.574Z,13.20
2023-04-01T11:33:16.044Z,13.10
2023-04-01T11:35:42.526Z,13.10
2023-04-01T11:38:09.012Z,13.20
2023-04-01T11:40:35.521Z,13.20
2023-04-01T11:43:01.984Z,13.20
2023-04-01T11:45:28.458Z,13.10
2023-04-01T11:47:54.973Z,13.20
2023-04-01T11:50:21.668Z,13.20
2023-04-01T11:52:49.061Z,13.20
2023-04-01T11:55:15.544Z,13.20
2023-04-01T11:57:42.028Z,13.20
2023-04-01T12:00:08.516Z,13.20
2023-04-01T12:02:35.077Z,13.20
2023-04-01T12:05:07.141Z,13.20
2023-04-01T12:07:37.313Z,13.20
2023-04-01T12:10:03.938Z,13.20
2023-04-01T12:12:30.407Z,13.20
2023-04-01T12:14:56.897Z,13.10
2023-04-01T12:17:23.372Z,13.20
2023-04-01T12:19:49.842Z,13.20
2023-04-01T12:22:16.329Z,13.10
2023-04-01T12:24:43.022Z,13.20
2023-04-01T12:27:13.176Z,13.20
2023-04-01T12:29:39.665Z,13.10
2023-04-01T12:32:07.179Z,13.20
2023-04-01T12:34:33.700Z,13.20
2023-04-01T12:37:00.180Z,13.10
2023-04-01T12:39:26.659Z,13.20
2023-04-01T12:41:53.139Z,13.20
2023-04-01T12:44:25.153Z,13.20
2023-04-01T12:46:51.637Z,13.20
2023-04-01T12:49:19.126Z,13.20
2023-04-01T12:51:45.620Z,13.20
2023-04-01T12:54:12.089Z,13.20
2023-04-01T12:56:43.147Z,13.20
2023-04-01T12:59:09.613Z,13.20
2023-04-01T13:01:36.174Z,13.20
2023-04-01T13:04:02.694Z,13.20
2023-04-01T13:06:29.204Z,13.20
2023-04-01T13:08:55.676Z,13.10
2023-04-01T13:11:22.167Z,13.10
2023-04-01T13:13:48.644Z,13.20
2023-04-01T13:16:15.194Z,13.10
2023-04-01T13:18:41.711Z,13.20
2023-04-01T13:21:08.179Z,13.20
2023-04-01T13:23:34.654Z,13.20
2023-04-01T13:26:12.990Z,13.20
2023-04-01T13:28:40.467Z,13.20
2023-04-01T13:31:07.251Z,13.20
2023-04-01T13:33:33.737Z,13.20
2023-04-01T13:36:00.249Z,13.20
2023-04-01T13:38:26.742Z,13.10
2023-04-01T13:46:37.240Z,13.20
2023-04-01T13:49:03.739Z,13.20
2023-04-01T13:51:30.276Z,13.10
2023-04-01T13:53:56.741Z,13.20
2023-04-01T13:56:23.242Z,13.20
2023-04-01T13:58:49.706Z,13.10
2023-04-01T14:01:16.232Z,13.20
2023-04-01T14:03:42.837Z,13.20
2023-04-01T14:06:09.343Z,13.10
2023-04-01T14:08:37.185Z,13.20
2023-04-01T14:11:03.635Z,13.20
2023-04-01T14:13:30.112Z,13.20
2023-04-01T14:15:56.640Z,13.20
2023-04-01T14:18:23.161Z,13.20
2023-04-01T14:20:49.648Z,13.20
2023-04-01T14:23:16.127Z,13.20
2023-04-01T14:25:43.219Z,13.20
2023-04-01T14:28:09.690Z,13.20
2023-04-01T14:30:36.184Z,13.20
2023-04-01T14:33:02.661Z,13.20
2023-04-01T14:35:29.166Z,13.20
2023-04-01T14:37:55.647Z,13.20
2023-04-01T14:40:22.155Z,13.20
2023-04-01T14:42:48.597Z,13.20
2023-04-01T14:45:15.071Z,13.20
2023-04-01T14:47:41.587Z,13.20
2023-04-01T14:50:13.466Z,13.20
2023-04-01T14:52:43.238Z,13.20
2023-04-01T14:55:09.704Z,13.20
2023-04-01T14:57:43.244Z,13.20
2023-04-01T15:00:09.731Z,13.20
2023-04-01T15:02:36.203Z,13.20
2023-04-01T15:05:02.708Z,13.20
2023-04-01T15:07:31.262Z,13.20
2023-04-01T15:09:57.728Z,13.20
2023-04-01T15:12:24.203Z,13.20
2023-04-01T15:14:50.669Z,13.20
2023-04-01T15:17:17.145Z,13.20
2023-04-01T15:19:43.615Z,13.20
2023-04-01T15:22:10.132Z,13.20
2023-04-01T15:24:37.243Z,13.20
2023-04-01T15:27:03.746Z,13.20
2023-04-01T15:29:31.251Z,13.20
2023-04-01T15:31:57.742Z,13.20
2023-04-01T15:34:24.199Z,13.20
2023-04-01T15:36:50.688Z,13.20
2023-04-01T15:39:19.262Z,13.20
2023-04-01T15:41:45.773Z,13.20
2023-04-01T15:44:12.231Z,13.20
2023-04-01T15:46:43.346Z,13.20
2023-04-01T15:49:09.838Z,13.20
2023-04-01T15:51:36.322Z,13.20
2023-04-01T15:54:02.789Z,13.20
2023-04-01T15:56:29.295Z,13.20
2023-04-01T15:58:55.772Z,13.30
2023-04-01T16:01:22.306Z,13.20
2023-04-01T16:03:48.815Z,13.20
2023-04-01T16:06:15.345Z,13.20
2023-04-01T16:08:41.834Z,13.20
2023-04-01T16:11:13.495Z,13.20
2023-04-01T16:13:40.018Z,13.20
2023-04-01T16:16:06.549Z,13.20
2023-04-01T16:18:33.039Z,13.20
2023-04-01T16:20:59.614Z,13.20
2023-04-01T16:23:26.150Z,13.10
2023-04-01T16:25:52.640Z,13.10
2023-04-01T16:28:19.128Z,13.20
2023-04-01T16:30:49.370Z,13.20
2023-04-01T16:33:19.335Z,13.20
2023-04-01T16:41:20.578Z,13.20
2023-04-01T16:43:47.295Z,13.30
2023-04-01T16:46:13.838Z,13.20
2023-04-01T16:48:40.313Z,13.30
2023-04-01T16:51:06.827Z,13.30
2023-04-01T16:53:33.308Z,13.30
2023-04-01T16:55:59.793Z,13.30
2023-04-01T16:58:31.350Z,13.30
2023-04-01T17:01:01.602Z,13.30
2023-04-01T17:03:28.158Z,13.30
2023-04-01T17:06:13.414Z,13.30
2023-04-01T17:08:39.947Z,13.30
2023-04-01T17:11:06.433Z,13.30
2023-04-01T17:13:32.909Z,13.30
2023-04-01T17:15:59.448Z,13.30
2023-04-01T17:21:20.094Z,13.30
2023-04-01T17:23:46.779Z,13.30
2023-04-01T17:26:13.267Z,13.30
2023-04-01T17:28:39.777Z,13.40
2023-04-01T17:31:06.334Z,13.40
2023-04-01T17:33:32.823Z,13.40
2023-04-01T17:35:59.341Z,13.40
2023-04-01T17:38:31.409Z,13.40
2023-04-01T17:40:57.887Z,13.40
2023-04-01T17:43:25.403Z,13.40
2023-04-01T17:45:51.877Z,13.40
2023-04-01T17:48:18.353Z,13.40
2023-04-01T17:50:44.829Z,13.40
2023-04-01T17:53:11.350Z,13.40
2023-04-01T17:55:37.852Z,13.40
2023-04-01T17:58:04.358Z,13.50
2023-04-01T18:00:50.647Z,13.40
2023-04-01T18:06:10.581Z,13.40
2023-04-01T18:08:37.074Z,13.40
2023-04-01T18:11:03.627Z,13.40
2023-04-01T18:13:30.136Z,13.40
2023-04-01T18:16:07.461Z,13.40
2023-04-01T18:18:34.108Z,13.40
2023-04-01T18:21:00.581Z,13.40
2023-04-01T18:23:27.063Z,13.50
2023-04-01T18:25:53.544Z,13.40
2023-04-01T18:28:20.035Z,13.40
2023-04-01T18:30:46.502Z,13.40
2023-04-01T18:33:12.970Z,13.40
2023-04-01T18:35:39.448Z,13.40
2023-04-01T18:38:07.398Z,13.40
2023-04-01T18:40:34.164Z,13.40
2023-04-01T18:43:00.786Z,13.40
2023-04-01T18:45:27.243Z,13.40
2023-04-01T18:47:53.758Z,13.40
2023-04-01T18:50:20.306Z,13.40
2023-04-01T18:52:46.770Z,13.40
2023-04-01T18:55:13.240Z,13.40
2023-04-01T18:57:39.719Z,13.40
2023-04-01T19:00:07.464Z,13.40
2023-04-01T19:02:34.013Z,13.40
2023-04-01T19:05:00.547Z,13.40
2023-04-01T19:07:27.008Z,13.40
2023-04-01T19:09:53.488Z,13.40
2023-04-01T19:12:19.986Z,13.40
2023-04-01T19:14:49.470Z,13.40
2023-04-01T19:17:15.951Z,13.40
2023-04-01T19:19:42.478Z,13.40
2023-04-01T19:22:08.952Z,13.30
2023-04-01T19:24:36.892Z,13.30
2023-04-01T19:27:04.767Z,13.30
2023-04-01T19:29:31.242Z,13.30
2023-04-01T19:31:57.705Z,13.30
2023-04-01T19:34:24.186Z,13.30
2023-04-01T19:36:50.705Z,13.30
2023-04-01T19:39:17.200Z,13.20
2023-04-01T19:41:43.714Z,13.30
2023-04-01T19:44:10.217Z,13.20
2023-04-01T19:46:36.761Z,13.20
2023-04-01T19:49:03.263Z,13.20
2023-04-01T19:51:29.724Z,13.20
2023-04-01T19:53:56.184Z,13.20
2023-04-01T19:56:22.690Z,13.20
2023-04-01T19:58:49.169Z,13.20
2023-04-01T20:01:15.641Z,13.20
2023-04-01T20:03:42.237Z,13.20
2023-04-01T20:06:08.744Z,13.20
2023-04-01T20:08:35.221Z,13.20
2023-04-01T20:11:01.784Z,13.20
2023-04-01T20:13:28.261Z,13.20
2023-04-01T20:15:54.741Z,13.20
2023-04-01T20:18:21.231Z,13.10
2023-04-01T20:20:47.677Z,13.20
2023-04-01T20:23:14.160Z,13.20
2023-04-01T20:25:40.641Z,13.10
2023-04-01T20:28:07.121Z,13.20
2023-04-01T20:30:37.552Z,13.10
2023-04-01T20:33:04.076Z,13.10
2023-04-01T20:35:30.643Z,13.10
2023-04-01T20:37:57.164Z,13.10
2023-04-01T20:40:23.746Z,13.10
2023-04-01T20:42:50.224Z,13.10
2023-04-01T20:45:16.719Z,13.10
2023-04-01T20:47:43.212Z,13.10
2023-04-01T20:50:09.745Z,13.10
2023-04-01T20:52:36.225Z,13.10
2023-04-01T20:55:02.733Z,13.10
2023-04-01T20:57:29.247Z,13.10
2023-04-01T20:59:55.730Z,13.10
2023-04-01T21:02:25.606Z,13.10
2023-04-01T21:04:52.244Z,13.10
2023-04-01T21:07:18.762Z,13.10
2023-04-01T21:09:45.231Z,13.10
2023-04-01T21:12:11.713Z,13.10
2023-04-01T21:14:38.196Z,13.00
2023-04-01T21:17:04.680Z,13.00
2023-04-01T21:19:31.154Z,13.00
2023-04-01T21:21:57.620Z,13.00
2023-04-01T21:24:24.082Z,13.00
2023-04-01T21:26:55.585Z,13.00
2023-04-01T21:29:22.061Z,13.00
2023-04-01T21:31:48.641Z,13.00
2023-04-01T21:34:15.130Z,13.00
2023-04-01T21:36:41.603Z,13.00
2023-04-01T21:39:08.077Z,13.00
2023-04-01T21:41:34.563Z,13.00
2023-04-01T21:44:01.025Z,13.00
2023-04-01T21:46:27.557Z,13.00
2023-04-01T21:48:54.077Z,13.00
2023-04-01T21:51:20.555Z,12.90
2023-04-01T21:53:47.027Z,13.00
2023-04-01T21:56:13.504Z,12.90
2023-04-01T21:58:39.976Z,12.90
2023-04-01T22:01:06.446Z,13.00
2023-04-01T22:03:32.996Z,12.90
2023-04-01T22:05:59.540Z,12.90
2023-04-01T22:08:26.030Z,12.90
2023-04-01T22:10:52.533Z,12.90
2023-04-01T22:13:19.018Z,12.90
2023-04-01T22:15:45.495Z,12.90
2023-04-01T22:18:12.019Z,12.90
2023-04-01T22:20:38.528Z,12.90
2023-04-01T22:23:07.579Z,12.90
2023-04-01T22:25:34.189Z,13.00
2023-04-01T22:28:00.738Z,12.90
2023-04-01T22:30:27.226Z,12.90
2023-04-01T22:32:53.760Z,12.90
2023-04-01T22:35:20.313Z,12.90
2023-04-01T22:37:46.791Z,12.90
2023-04-01T22:40:13.273Z,12.90
2023-04-01T22:42:39.742Z,12.90
2023-04-01T22:45:06.204Z,12.90
2023-04-01T22:47:32.676Z,12.90
2023-04-01T22:49:59.151Z,12.90
2023-04-01T22:52:25.643Z,12.90
2023-04-01T22:54:55.842Z,12.90
2023-04-01T22:57:22.350Z,12.90
2023-04-01T22:59:48.843Z,12.90
2023-04-01T23:02:15.354Z,12.90
2023-04-01T23:04:41.877Z,12.80
2023-04-01T23:07:08.389Z,12.80
2023-04-01T23:09:34.867Z,12.80
2023-04-01T23:12:01.672Z,12.90
2023-04-01T23:14:28.126Z,12.90
2023-04-01T23:16:54.598Z,12.90
2023-04-01T23:19:21.069Z,12.90
2023-04-01T23:21:47.534Z,12.90
2023-04-01T23:24:14.002Z,12.90
2023-04-01T23:26:40.509Z,12.90
2023-04-01T23:29:06.994Z,12.90
2023-04-01T23:31:33.532Z,12.80
2023-04-01T23:34:01.645Z,12.80
2023-04-01T23:36:28.132Z,12.80
2023-04-01T23:38:54.607Z,12.80
2023-04-01T23:41:21.073Z,12.80
2023-04-01T23:43:47.550Z,12.80
2023-04-01T23:46:14.071Z,12.80
2023-04-01T23:48:40.535Z,12.80
2023-04-01T23:51:07.019Z,12.80
2023-04-01T23:53:33.495Z,12.90
2023-04-01T23:55:59.998Z,12.80
2023-04-01T23:58:26.471Z,12.80
